sensor_id;sensor_type;location;lat;lon;timestamp;pressure;altitude;pressure_sealevel;temperature;humidity
72444;BME280;60449;52.016;5.414;2023-08-17T00:00:40;102009.56;;;18.17;72.62
72444;BME280;60449;52.016;5.414;2023-08-17T00:01:30;102008.69;;;18.13;72.80
72444;BME280;60449;52.016;5.414;2023-08-17T00:02:20;102008.59;;;18.29;72.83
72444;BME280;60449;52.016;5.414;2023-08-17T00:03:11;102012.97;;;18.39;71.78
72444;BME280;60449;52.016;5.414;2023-08-17T00:04:02;102012.16;;;18.26;72.29
72444;BME280;60449;52.016;5.414;2023-08-17T00:04:52;102012.03;;;18.43;72.45
72444;BME280;60449;52.016;5.414;2023-08-17T00:05:42;102012.00;;;18.52;72.07
72444;BME280;60449;52.016;5.414;2023-08-17T00:06:33;102014.59;;;18.59;72.42
72444;BME280;60449;52.016;5.414;2023-08-17T00:07:24;102005.66;;;18.63;71.36
72444;BME280;60449;52.016;5.414;2023-08-17T00:08:14;102006.66;;;18.49;71.40
72444;BME280;60449;52.016;5.414;2023-08-17T00:09:04;102008.38;;;18.57;71.77
72444;BME280;60449;52.016;5.414;2023-08-17T00:09:55;102012.13;;;18.31;72.46
72444;BME280;60449;52.016;5.414;2023-08-17T00:10:46;102005.13;;;18.14;72.73
72444;BME280;60449;52.016;5.414;2023-08-17T00:11:37;102006.72;;;18.40;71.90
72444;BME280;60449;52.016;5.414;2023-08-17T00:12:27;102001.34;;;18.48;71.95
72444;BME280;60449;52.016;5.414;2023-08-17T00:13:20;102011.13;;;18.47;71.57
72444;BME280;60449;52.016;5.414;2023-08-17T00:14:12;102005.75;;;18.53;71.42
72444;BME280;60449;52.016;5.414;2023-08-17T00:15:03;102017.31;;;18.55;71.29
72444;BME280;60449;52.016;5.414;2023-08-17T00:15:53;102011.31;;;18.18;72.98
72444;BME280;60449;52.016;5.414;2023-08-17T00:16:44;102013.16;;;18.02;73.13
72444;BME280;60449;52.016;5.414;2023-08-17T00:17:35;102010.47;;;18.09;72.30
72444;BME280;60449;52.016;5.414;2023-08-17T00:18:34;102007.84;;;17.98;73.02
72444;BME280;60449;52.016;5.414;2023-08-17T00:19:24;102012.28;;;17.96;73.13
72444;BME280;60449;52.016;5.414;2023-08-17T00:20:14;102011.25;;;18.27;72.71
72444;BME280;60449;52.016;5.414;2023-08-17T00:21:05;102009.53;;;18.20;72.87
72444;BME280;60449;52.016;5.414;2023-08-17T00:21:55;102010.44;;;18.17;73.14
72444;BME280;60449;52.016;5.414;2023-08-17T00:22:46;102007.75;;;18.23;72.78
72444;BME280;60449;52.016;5.414;2023-08-17T00:23:36;101999.69;;;18.25;72.48
72444;BME280;60449;52.016;5.414;2023-08-17T00:24:26;102007.53;;;18.48;72.25
72444;BME280;60449;52.016;5.414;2023-08-17T00:25:17;101996.13;;;18.26;72.72
72444;BME280;60449;52.016;5.414;2023-08-17T00:26:08;102003.19;;;18.38;72.01
72444;BME280;60449;52.016;5.414;2023-08-17T00:26:57;101992.47;;;18.39;71.54
72444;BME280;60449;52.016;5.414;2023-08-17T00:27:50;101998.84;;;18.24;72.20
72444;BME280;60449;52.016;5.414;2023-08-17T00:28:41;101994.50;;;18.00;72.93
72444;BME280;60449;52.016;5.414;2023-08-17T00:29:33;101996.16;;;18.23;73.01
72444;BME280;60449;52.016;5.414;2023-08-17T00:30:24;101993.72;;;17.82;73.82
72444;BME280;60449;52.016;5.414;2023-08-17T00:31:15;101995.50;;;17.73;74.17
72444;BME280;60449;52.016;5.414;2023-08-17T00:32:17;101982.19;;;17.69;73.91
72444;BME280;60449;52.016;5.414;2023-08-17T00:33:07;101983.06;;;17.78;73.78
72444;BME280;60449;52.016;5.414;2023-08-17T00:34:15;101979.44;;;17.85;73.67
72444;BME280;60449;52.016;5.414;2023-08-17T00:35:21;101984.78;;;17.85;73.90
72444;BME280;60449;52.016;5.414;2023-08-17T00:36:15;101991.13;;;17.58;74.69
72444;BME280;60449;52.016;5.414;2023-08-17T00:37:08;101992.06;;;17.49;74.84
72444;BME280;60449;52.016;5.414;2023-08-17T00:38:02;101992.00;;;17.64;74.35
72444;BME280;60449;52.016;5.414;2023-08-17T00:38:52;101985.69;;;17.84;74.38
72444;BME280;60449;52.016;5.414;2023-08-17T00:39:43;102000.94;;;17.49;74.79
72444;BME280;60449;52.016;5.414;2023-08-17T00:40:33;101996.44;;;17.61;74.53
72444;BME280;60449;52.016;5.414;2023-08-17T00:41:25;102006.16;;;17.79;74.15
72444;BME280;60449;52.016;5.414;2023-08-17T00:42:17;102000.94;;;17.49;74.50
72444;BME280;60449;52.016;5.414;2023-08-17T00:43:11;101993.84;;;17.42;75.19
72444;BME280;60449;52.016;5.414;2023-08-17T00:44:02;101994.72;;;17.53;74.52
72444;BME280;60449;52.016;5.414;2023-08-17T00:44:52;101992.84;;;17.76;74.04
72444;BME280;60449;52.016;5.414;2023-08-17T00:45:45;101994.66;;;17.67;74.63
72444;BME280;60449;52.016;5.414;2023-08-17T00:46:37;101988.47;;;17.56;75.13
72444;BME280;60449;52.016;5.414;2023-08-17T00:47:30;101988.50;;;17.47;74.66
72444;BME280;60449;52.016;5.414;2023-08-17T00:48:20;101989.38;;;17.50;74.89
72444;BME280;60449;52.016;5.414;2023-08-17T00:49:15;101991.97;;;17.67;74.74
72444;BME280;60449;52.016;5.414;2023-08-17T00:50:06;101994.66;;;17.64;74.64
72444;BME280;60449;52.016;5.414;2023-08-17T00:50:58;101991.97;;;17.67;74.67
72444;BME280;60449;52.016;5.414;2023-08-17T00:51:50;101980.34;;;17.86;74.12
72444;BME280;60449;52.016;5.414;2023-08-17T00:52:40;101988.31;;;17.87;73.78
72444;BME280;60449;52.016;5.414;2023-08-17T00:53:42;101994.63;;;17.72;74.38
72444;BME280;60449;52.016;5.414;2023-08-17T00:54:33;101986.69;;;17.50;74.88
72444;BME280;60449;52.016;5.414;2023-08-17T00:55:24;101987.53;;;17.66;74.74
72444;BME280;60449;52.016;5.414;2023-08-17T00:56:14;101997.28;;;17.77;73.78
72444;BME280;60449;52.016;5.414;2023-08-17T00:57:04;101993.66;;;17.90;72.91
72444;BME280;60449;52.016;5.414;2023-08-17T00:57:56;101990.16;;;17.73;73.68
72444;BME280;60449;52.016;5.414;2023-08-17T00:58:47;101994.66;;;17.67;73.93
72444;BME280;60449;52.016;5.414;2023-08-17T00:59:39;102000.97;;;17.45;74.42
72444;BME280;60449;52.016;5.414;2023-08-17T01:00:29;102000.00;;;17.63;73.78
72444;BME280;60449;52.016;5.414;2023-08-17T01:01:20;102002.75;;;17.46;74.36
72444;BME280;60449;52.016;5.414;2023-08-17T01:02:12;101993.78;;;17.62;73.75
72444;BME280;60449;52.016;5.414;2023-08-17T01:03:03;102001.84;;;17.45;74.60
72444;BME280;60449;52.016;5.414;2023-08-17T01:03:54;102002.59;;;17.74;73.69
72444;BME280;60449;52.016;5.414;2023-08-17T01:04:44;102000.84;;;17.69;73.31
72444;BME280;60449;52.016;5.414;2023-08-17T01:05:34;102000.88;;;17.68;73.54
72444;BME280;60449;52.016;5.414;2023-08-17T01:06:26;101997.34;;;17.64;73.86
72444;BME280;60449;52.016;5.414;2023-08-17T01:07:16;102004.44;;;17.65;73.47
72444;BME280;60449;52.016;5.414;2023-08-17T01:08:06;102001.75;;;17.73;73.62
72444;BME280;60449;52.016;5.414;2023-08-17T01:08:59;101999.03;;;17.81;73.12
72444;BME280;60449;52.016;5.414;2023-08-17T01:09:49;102002.56;;;17.81;73.31
72444;BME280;60449;52.016;5.414;2023-08-17T01:10:50;102002.59;;;17.74;73.72
72444;BME280;60449;52.016;5.414;2023-08-17T01:11:47;102004.41;;;17.68;73.56
72444;BME280;60449;52.016;5.414;2023-08-17T01:12:47;102000.78;;;17.91;72.47
72444;BME280;60449;52.016;5.414;2023-08-17T01:14:04;101999.84;;;17.94;72.77
72444;BME280;60449;52.016;5.414;2023-08-17T01:15:05;101999.84;;;17.97;72.52
72444;BME280;60449;52.016;5.414;2023-08-17T01:16:03;102004.28;;;17.98;72.96
72444;BME280;60449;52.016;5.414;2023-08-17T01:17:15;101999.81;;;18.02;72.42
72444;BME280;60449;52.016;5.414;2023-08-17T01:18:19;102000.63;;;18.19;71.94
72444;BME280;60449;52.016;5.414;2023-08-17T01:19:18;102000.72;;;18.07;72.68
72444;BME280;60449;52.016;5.414;2023-08-17T01:20:15;102002.56;;;17.86;73.15
72444;BME280;60449;52.016;5.414;2023-08-17T01:21:10;102010.53;;;17.95;72.87
72444;BME280;60449;52.016;5.414;2023-08-17T01:22:08;102006.91;;;18.10;72.35
72444;BME280;60449;52.016;5.414;2023-08-17T01:23:06;101997.13;;;18.11;72.67
72444;BME280;60449;52.016;5.414;2023-08-17T01:23:57;101998.97;;;17.96;72.90
72444;BME280;60449;52.016;5.414;2023-08-17T01:24:49;102002.66;;;17.67;74.35
72444;BME280;60449;52.016;5.414;2023-08-17T01:25:40;102003.53;;;17.71;74.56
72444;BME280;60449;52.016;5.414;2023-08-17T01:26:29;102005.31;;;17.66;74.26
72444;BME280;60449;52.016;5.414;2023-08-17T01:27:20;101998.16;;;17.77;74.41
72444;BME280;60449;52.016;5.414;2023-08-17T01:28:16;101999.06;;;17.75;74.27
72444;BME280;60449;52.016;5.414;2023-08-17T01:29:05;102002.72;;;17.53;75.48
72444;BME280;60449;52.016;5.414;2023-08-17T01:30:02;101996.47;;;17.56;75.29
72444;BME280;60449;52.016;5.414;2023-08-17T01:31:08;101998.19;;;17.69;74.81
72444;BME280;60449;52.016;5.414;2023-08-17T01:32:15;101986.66;;;17.64;74.84
72444;BME280;60449;52.016;5.414;2023-08-17T01:33:16;101993.59;;;17.99;73.76
72444;BME280;60449;52.016;5.414;2023-08-17T01:34:17;101989.16;;;17.98;73.84
72444;BME280;60449;52.016;5.414;2023-08-17T01:35:21;101996.38;;;17.79;74.29
72444;BME280;60449;52.016;5.414;2023-08-17T01:36:37;101990.22;;;17.66;74.99
72444;BME280;60449;52.016;5.414;2023-08-17T01:37:47;101983.06;;;17.78;74.09
72444;BME280;60449;52.016;5.414;2023-08-17T01:38:45;101992.03;;;17.55;75.51
72444;BME280;60449;52.016;5.414;2023-08-17T01:39:43;101995.63;;;17.41;75.25
72444;BME280;60449;52.016;5.414;2023-08-17T01:40:38;101991.09;;;17.65;75.21
72444;BME280;60449;52.016;5.414;2023-08-17T01:41:31;101986.66;;;17.67;75.17
72444;BME280;60449;52.016;5.414;2023-08-17T01:42:23;101991.97;;;17.70;74.58
72444;BME280;60449;52.016;5.414;2023-08-17T01:43:17;101990.34;;;17.32;75.75
72444;BME280;60449;52.016;5.414;2023-08-17T01:44:26;101996.53;;;17.34;76.34
72444;BME280;60449;52.016;5.414;2023-08-17T01:45:19;101991.19;;;17.47;76.10
72444;BME280;60449;52.016;5.414;2023-08-17T01:46:10;101991.03;;;17.79;74.57
72444;BME280;60449;52.016;5.414;2023-08-17T01:47:05;101988.44;;;17.65;74.68
72444;BME280;60449;52.016;5.414;2023-08-17T01:47:59;101986.66;;;17.58;74.85
72444;BME280;60449;52.016;5.414;2023-08-17T01:48:49;101987.50;;;17.74;73.60
72444;BME280;60449;52.016;5.414;2023-08-17T01:49:41;101985.84;;;17.50;74.32
72444;BME280;60449;52.016;5.414;2023-08-17T01:50:36;101979.59;;;17.54;74.75
72444;BME280;60449;52.016;5.414;2023-08-17T01:51:27;101983.94;;;17.77;73.93
72444;BME280;60449;52.016;5.414;2023-08-17T01:52:17;101986.63;;;17.70;73.49
72444;BME280;60449;52.016;5.414;2023-08-17T01:53:07;101979.53;;;17.71;74.06
72444;BME280;60449;52.016;5.414;2023-08-17T01:54:09;101981.25;;;17.80;73.75
72444;BME280;60449;52.016;5.414;2023-08-17T01:54:59;101967.03;;;17.76;73.52
72444;BME280;60449;52.016;5.414;2023-08-17T01:55:48;101976.81;;;17.82;73.10
72444;BME280;60449;52.016;5.414;2023-08-17T01:56:39;101970.72;;;17.49;73.64
72444;BME280;60449;52.016;5.414;2023-08-17T01:57:29;101980.47;;;17.56;74.27
72444;BME280;60449;52.016;5.414;2023-08-17T01:58:18;101984.03;;;17.61;74.48
72444;BME280;60449;52.016;5.414;2023-08-17T01:59:09;101975.16;;;17.53;74.98
72444;BME280;60449;52.016;5.414;2023-08-17T02:00:00;101974.19;;;17.69;74.03
72444;BME280;60449;52.016;5.414;2023-08-17T02:00:52;101976.88;;;17.62;73.72
72444;BME280;60449;52.016;5.414;2023-08-17T02:01:44;101975.06;;;17.75;72.99
72444;BME280;60449;52.016;5.414;2023-08-17T02:02:34;101984.81;;;17.79;72.85
72444;BME280;60449;52.016;5.414;2023-08-17T02:03:24;101980.41;;;17.68;72.54
72444;BME280;60449;52.016;5.414;2023-08-17T02:04:14;101983.06;;;17.72;72.55
72444;BME280;60449;52.016;5.414;2023-08-17T02:05:06;101984.97;;;17.41;73.17
72444;BME280;60449;52.016;5.414;2023-08-17T02:06:03;101985.78;;;17.65;73.04
72444;BME280;60449;52.016;5.414;2023-08-17T02:07:05;101992.06;;;17.42;73.75
72444;BME280;60449;52.016;5.414;2023-08-17T02:07:55;101985.03;;;17.29;74.00
72444;BME280;60449;52.016;5.414;2023-08-17T02:08:45;101990.22;;;17.62;73.40
72444;BME280;60449;52.016;5.414;2023-08-17T02:09:38;101992.91;;;17.60;73.36
72444;BME280;60449;52.016;5.414;2023-08-17T02:13:23;101986.53;;;17.89;72.97
72444;BME280;60449;52.016;5.414;2023-08-17T02:14:22;101983.00;;;17.90;71.89
72444;BME280;60449;52.016;5.414;2023-08-17T02:15:12;101988.31;;;17.87;71.95
72444;BME280;60449;52.016;5.414;2023-08-17T02:16:09;101982.94;;;17.96;72.07
72444;BME280;60449;52.016;5.414;2023-08-17T02:17:45;101977.84;;;17.50;73.53
72444;BME280;60449;52.016;5.414;2023-08-17T02:18:43;101984.91;;;17.57;73.95
72444;BME280;60449;52.016;5.414;2023-08-17T02:19:43;101981.34;;;17.64;73.79
72444;BME280;60449;52.016;5.414;2023-08-17T02:20:43;101985.88;;;17.28;74.57
72444;BME280;60449;52.016;5.414;2023-08-17T02:21:36;101986.78;;;17.19;74.40
72444;BME280;60449;52.016;5.414;2023-08-17T02:22:26;101984.97;;;17.41;73.49
72444;BME280;60449;52.016;5.414;2023-08-17T02:23:15;101981.41;;;17.46;74.36
72444;BME280;60449;52.016;5.414;2023-08-17T02:24:06;101987.63;;;17.38;73.39
72444;BME280;60449;52.016;5.414;2023-08-17T02:25:00;101986.75;;;17.36;74.13
72444;BME280;60449;52.016;5.414;2023-08-17T02:25:51;101981.31;;;17.66;73.66
72444;BME280;60449;52.016;5.414;2023-08-17T02:26:43;101987.66;;;17.35;74.59
72444;BME280;60449;52.016;5.414;2023-08-17T02:27:33;101986.84;;;17.15;74.97
72444;BME280;60449;52.016;5.414;2023-08-17T02:28:29;101982.31;;;17.40;74.16
72444;BME280;60449;52.016;5.414;2023-08-17T02:29:19;101981.44;;;17.32;74.64
72444;BME280;60449;52.016;5.414;2023-08-17T02:30:10;101982.38;;;17.21;74.60
72444;BME280;60449;52.016;5.414;2023-08-17T02:31:02;101986.81;;;17.21;74.55
72444;BME280;60449;52.016;5.414;2023-08-17T02:31:52;101983.25;;;16.89;75.60
72444;BME280;60449;52.016;5.414;2023-08-17T02:32:42;101985.03;;;16.96;75.73
72444;BME280;60449;52.016;5.414;2023-08-17T02:33:35;101988.59;;;17.19;75.12
72444;BME280;60449;52.016;5.414;2023-08-17T02:34:26;101979.72;;;17.21;75.11
72444;BME280;60449;52.016;5.414;2023-08-17T02:35:17;101977.84;;;17.44;74.40
72444;BME280;60449;52.016;5.414;2023-08-17T02:36:07;101977.84;;;17.44;73.90
72444;BME280;60449;52.016;5.414;2023-08-17T02:37:09;101982.28;;;17.52;73.75
72444;BME280;60449;52.016;5.414;2023-08-17T02:38:10;101976.97;;;17.43;73.70
72444;BME280;60449;52.016;5.414;2023-08-17T02:39:03;101974.25;;;17.54;73.42
72444;BME280;60449;52.016;5.414;2023-08-17T02:40:06;101964.41;;;17.70;73.07
72444;BME280;60449;52.016;5.414;2023-08-17T02:40:58;101964.38;;;17.78;72.98
72444;BME280;60449;52.016;5.414;2023-08-17T02:41:48;101964.53;;;17.47;73.11
72444;BME280;60449;52.016;5.414;2023-08-17T02:42:39;101960.09;;;17.41;73.56
72444;BME280;60449;52.016;5.414;2023-08-17T02:43:29;101961.91;;;17.31;74.47
72444;BME280;60449;52.016;5.414;2023-08-17T02:44:21;101964.53;;;17.37;74.61
72444;BME280;60449;52.016;5.414;2023-08-17T02:45:12;101956.53;;;17.42;74.51
72444;BME280;60449;52.016;5.414;2023-08-17T02:46:05;101963.69;;;17.32;74.90
72444;BME280;60449;52.016;5.414;2023-08-17T02:46:56;101968.13;;;17.27;75.20
72444;BME280;60449;52.016;5.414;2023-08-17T02:47:46;101968.19;;;17.02;75.74
72444;BME280;60449;52.016;5.414;2023-08-17T02:48:39;101958.38;;;17.13;75.91
72444;BME280;60449;52.016;5.414;2023-08-17T02:49:30;101961.09;;;17.04;76.06
72444;BME280;60449;52.016;5.414;2023-08-17T02:50:19;101962.84;;;17.10;76.08
72444;BME280;60449;52.016;5.414;2023-08-17T02:51:09;101961.94;;;17.09;76.21
72444;BME280;60449;52.016;5.414;2023-08-17T02:52:02;101957.53;;;17.04;76.41
72444;BME280;60449;52.016;5.414;2023-08-17T02:52:52;101963.72;;;16.98;76.49
72444;BME280;60449;52.016;5.414;2023-08-17T02:53:43;101964.63;;;17.05;76.53
72444;BME280;60449;52.016;5.414;2023-08-17T02:54:32;101963.75;;;17.04;76.59
72444;BME280;60449;52.016;5.414;2023-08-17T02:55:28;101959.28;;;17.14;76.30
72444;BME280;60449;52.016;5.414;2023-08-17T02:56:20;101972.66;;;16.72;77.33
72444;BME280;60449;52.016;5.414;2023-08-17T02:57:10;101961.97;;;16.81;77.61
72444;BME280;60449;52.016;5.414;2023-08-17T02:58:02;101964.63;;;16.95;76.90
72444;BME280;60449;52.016;5.414;2023-08-17T02:58:52;101958.41;;;16.95;76.88
72444;BME280;60449;52.016;5.414;2023-08-17T02:59:43;101954.88;;;16.80;77.06
72444;BME280;60449;52.016;5.414;2023-08-17T03:00:32;101961.97;;;16.88;76.95
72444;BME280;60449;52.016;5.414;2023-08-17T03:01:22;101954.84;;;16.96;76.39
72444;BME280;60449;52.016;5.414;2023-08-17T03:02:13;101961.97;;;17.06;76.56
72444;BME280;60449;52.016;5.414;2023-08-17T03:03:03;101964.59;;;17.12;76.30
72444;BME280;60449;52.016;5.414;2023-08-17T03:03:53;101958.38;;;17.13;76.35
72444;BME280;60449;52.016;5.414;2023-08-17T03:04:46;101959.31;;;17.06;76.60
72444;BME280;60449;52.016;5.414;2023-08-17T03:05:36;101957.44;;;17.32;76.49
72444;BME280;60449;52.016;5.414;2023-08-17T03:06:25;101953.06;;;17.21;75.92
72444;BME280;60449;52.016;5.414;2023-08-17T03:07:16;101954.78;;;17.33;75.62
72444;BME280;60449;52.016;5.414;2023-08-17T03:08:06;101959.19;;;17.36;74.89
72444;BME280;60449;52.016;5.414;2023-08-17T03:08:59;101960.13;;;17.28;75.10
72444;BME280;60449;52.016;5.414;2023-08-17T03:09:53;101956.63;;;16.98;75.85
72444;BME280;60449;52.016;5.414;2023-08-17T03:10:44;101968.16;;;17.22;75.79
72444;BME280;60449;52.016;5.414;2023-08-17T03:11:35;101964.63;;;17.02;76.14
72444;BME280;60449;52.016;5.414;2023-08-17T03:12:25;101953.94;;;17.14;76.11
72444;BME280;60449;52.016;5.414;2023-08-17T03:13:18;101970.84;;;17.15;76.31
72444;BME280;60449;52.016;5.414;2023-08-17T03:14:09;101962.84;;;17.04;76.91
72444;BME280;60449;52.016;5.414;2023-08-17T03:14:59;101958.34;;;17.35;75.89
72444;BME280;60449;52.016;5.414;2023-08-17T03:15:51;101967.25;;;16.97;76.65
72444;BME280;60449;52.016;5.414;2023-08-17T03:16:42;101965.50;;;17.15;75.99
72444;BME280;60449;52.016;5.414;2023-08-17T03:17:35;101961.06;;;17.15;76.18
72444;BME280;60449;52.016;5.414;2023-08-17T03:18:25;101962.78;;;17.38;75.64
72444;BME280;60449;52.016;5.414;2023-08-17T03:19:15;101962.78;;;17.28;76.09
72444;BME280;60449;52.016;5.414;2023-08-17T03:20:07;101965.41;;;17.49;75.81
72444;BME280;60449;52.016;5.414;2023-08-17T03:21:01;101960.16;;;17.22;76.58
72444;BME280;60449;52.016;5.414;2023-08-17T03:21:51;101962.78;;;17.28;76.59
72444;BME280;60449;52.016;5.414;2023-08-17T03:22:51;101961.00;;;17.35;75.91
72444;BME280;60449;52.016;5.414;2023-08-17T03:23:44;101959.19;;;17.45;75.71
72444;BME280;60449;52.016;5.414;2023-08-17T03:24:40;101958.28;;;17.48;75.61
72444;BME280;60449;52.016;5.414;2023-08-17T03:25:32;101954.81;;;17.30;76.34
72444;BME280;60449;52.016;5.414;2023-08-17T03:26:24;101955.69;;;17.29;75.90
72444;BME280;60449;52.016;5.414;2023-08-17T03:27:28;101946.00;;;16.88;76.61
72444;BME280;60449;52.016;5.414;2023-08-17T03:28:19;101948.63;;;17.09;76.91
72444;BME280;60449;52.016;5.414;2023-08-17T03:29:30;101944.16;;;17.24;76.77
72444;BME280;60449;52.016;5.414;2023-08-17T03:30:28;101952.16;;;17.22;76.29
72444;BME280;60449;52.016;5.414;2023-08-17T03:31:24;101944.25;;;16.99;77.65
72444;BME280;60449;52.016;5.414;2023-08-17T03:32:35;101956.59;;;17.12;77.38
72444;BME280;60449;52.016;5.414;2023-08-17T03:33:25;101947.75;;;17.09;77.19
72444;BME280;60449;52.016;5.414;2023-08-17T03:34:16;101955.69;;;17.29;76.78
72444;BME280;60449;52.016;5.414;2023-08-17T03:35:10;101958.34;;;17.26;76.31
72444;BME280;60449;52.016;5.414;2023-08-17T03:36:06;101953.03;;;17.29;76.30
72444;BME280;60449;52.016;5.414;2023-08-17T03:36:58;101955.75;;;17.07;76.34
72444;BME280;60449;52.016;5.414;2023-08-17T03:37:52;101954.81;;;17.30;75.94
72444;BME280;60449;52.016;5.414;2023-08-17T03:38:42;101956.59;;;17.25;75.61
72444;BME280;60449;52.016;5.414;2023-08-17T03:39:34;101956.59;;;17.23;75.70
72444;BME280;60449;52.016;5.414;2023-08-17T03:40:28;101950.31;;;17.45;74.83
72444;BME280;60449;52.016;5.414;2023-08-17T03:41:21;101952.97;;;17.46;75.33
72444;BME280;60449;52.016;5.414;2023-08-17T03:42:16;101953.88;;;17.42;75.58
72444;BME280;60449;52.016;5.414;2023-08-17T03:43:21;101953.00;;;17.37;76.36
72444;BME280;60449;52.016;5.414;2023-08-17T03:51:59;101950.41;;;16.95;77.19
72444;BME280;60449;52.016;5.414;2023-08-17T03:52:53;101949.56;;;17.02;76.98
72444;BME280;60449;52.016;5.414;2023-08-17T03:53:43;101947.78;;;16.99;76.96
72444;BME280;60449;52.016;5.414;2023-08-17T03:54:33;101949.53;;;16.97;76.64
72444;BME280;60449;52.016;5.414;2023-08-17T03:55:33;101945.97;;;17.06;76.04
72444;BME280;60449;52.016;5.414;2023-08-17T03:57:36;101948.63;;;17.16;75.74
72444;BME280;60449;52.016;5.414;2023-08-17T03:58:29;101950.31;;;17.40;75.15
72444;BME280;60449;52.016;5.414;2023-08-17T03:59:23;101953.03;;;17.23;75.95
72444;BME280;60449;52.016;5.414;2023-08-17T04:00:17;101946.84;;;16.96;76.90
72444;BME280;60449;52.016;5.414;2023-08-17T04:01:08;101942.44;;;16.79;77.20
72444;BME280;60449;52.016;5.414;2023-08-17T04:01:58;101945.97;;;16.94;76.26
72444;BME280;60449;52.016;5.414;2023-08-17T04:02:49;101944.19;;;16.94;76.36
72444;BME280;60449;52.016;5.414;2023-08-17T04:03:39;101941.53;;;16.96;76.28
72444;BME280;60449;52.016;5.414;2023-08-17T04:04:30;101938.88;;;16.80;76.41
72444;BME280;60449;52.016;5.414;2023-08-17T04:05:27;101943.38;;;16.46;78.21
72444;BME280;60449;52.016;5.414;2023-08-17T04:06:17;101945.13;;;16.51;78.25
72444;BME280;60449;52.016;5.414;2023-08-17T04:07:08;101939.78;;;16.75;77.82
72444;BME280;60449;52.016;5.414;2023-08-17T04:07:58;101938.88;;;16.90;77.25
72444;BME280;60449;52.016;5.414;2023-08-17T04:08:51;101943.38;;;16.56;77.69
72444;BME280;60449;52.016;5.414;2023-08-17T04:09:48;101947.75;;;16.82;76.93
72444;BME280;60449;52.016;5.414;2023-08-17T04:13:38;101952.22;;;17.07;75.64
72444;BME280;60449;52.016;5.414;2023-08-17T04:14:41;101945.97;;;17.09;75.38
72444;BME280;60449;52.016;5.414;2023-08-17T04:16:10;101953.09;;;16.79;76.11
72444;BME280;60449;52.016;5.414;2023-08-17T04:24:39;101959.19;;;17.45;74.86
72444;BME280;60449;52.016;5.414;2023-08-17T04:25:38;101957.44;;;17.32;74.43
72444;BME280;60449;52.016;5.414;2023-08-17T04:26:42;101956.59;;;17.26;75.37
72444;BME280;60449;52.016;5.414;2023-08-17T04:27:44;101961.88;;;17.36;74.61
72444;BME280;60449;52.016;5.414;2023-08-17T04:28:35;101961.06;;;17.17;75.54
72444;BME280;60449;52.016;5.414;2023-08-17T04:29:26;101962.81;;;17.30;75.27
72444;BME280;60449;52.016;5.414;2023-08-17T04:30:17;101958.34;;;17.35;75.17
72444;BME280;60449;52.016;5.414;2023-08-17T04:31:12;101957.38;;;17.52;74.53
72444;BME280;60449;52.016;5.414;2023-08-17T04:32:13;101961.81;;;17.53;74.58
72444;BME280;60449;52.016;5.414;2023-08-17T04:33:03;101959.13;;;17.56;74.30
72444;BME280;60449;52.016;5.414;2023-08-17T04:33:56;101958.41;;;17.07;75.13
72444;BME280;60449;52.016;5.414;2023-08-17T04:34:46;101969.03;;;17.29;75.04
72444;BME280;60449;52.016;5.414;2023-08-17T04:35:53;101959.19;;;17.42;75.01
72444;BME280;60449;52.016;5.414;2023-08-17T04:36:43;101961.91;;;17.28;75.19
72444;BME280;60449;52.016;5.414;2023-08-17T04:37:34;101961.00;;;17.37;74.87
72444;BME280;60449;52.016;5.414;2023-08-17T04:38:23;101972.53;;;17.39;75.00
72444;BME280;60449;52.016;5.414;2023-08-17T04:39:17;101961.97;;;17.11;75.51
72444;BME280;60449;52.016;5.414;2023-08-17T04:40:17;101958.41;;;17.06;75.29
72444;BME280;60449;52.016;5.414;2023-08-17T04:41:16;101963.75;;;17.07;75.26
72444;BME280;60449;52.016;5.414;2023-08-17T04:42:12;101962.84;;;17.11;75.77
72444;BME280;60449;52.016;5.414;2023-08-17T04:43:12;101951.34;;;16.72;77.10
72444;BME280;60449;52.016;5.414;2023-08-17T04:44:04;101964.63;;;16.92;76.40
72444;BME280;60449;52.016;5.414;2023-08-17T04:44:58;101958.41;;;17.17;75.79
72444;BME280;60449;52.016;5.414;2023-08-17T04:45:51;101967.28;;;17.16;75.83
72444;BME280;60449;52.016;5.414;2023-08-17T04:46:45;101964.63;;;16.83;76.83
72444;BME280;60449;52.016;5.414;2023-08-17T04:47:36;101976.13;;;17.19;76.17
72444;BME280;60449;52.016;5.414;2023-08-17T04:48:26;101964.59;;;17.19;75.61
72444;BME280;60449;52.016;5.414;2023-08-17T04:49:19;101963.75;;;17.01;76.30
72444;BME280;60449;52.016;5.414;2023-08-17T04:50:09;101965.50;;;17.04;76.11
72444;BME280;60449;52.016;5.414;2023-08-17T04:50:58;101968.19;;;17.15;75.94
72444;BME280;60449;52.016;5.414;2023-08-17T04:51:49;101962.81;;;17.25;75.60
72444;BME280;60449;52.016;5.414;2023-08-17T04:52:39;101964.59;;;17.23;75.62
72444;BME280;60449;52.016;5.414;2023-08-17T04:53:29;101964.59;;;16.97;75.98
72444;BME280;60449;52.016;5.414;2023-08-17T04:54:22;101962.84;;;17.08;75.72
72444;BME280;60449;52.016;5.414;2023-08-17T04:55:13;101953.94;;;17.17;75.60
72444;BME280;60449;52.016;5.414;2023-08-17T04:56:07;101961.91;;;17.20;75.19
72444;BME280;60449;52.016;5.414;2023-08-17T04:57:00;101951.31;;;16.88;76.75
72444;BME280;60449;52.016;5.414;2023-08-17T04:57:52;101953.09;;;17.07;76.07
72444;BME280;60449;52.016;5.414;2023-08-17T04:58:45;101952.19;;;16.97;76.73
72444;BME280;60449;52.016;5.414;2023-08-17T04:59:36;101953.06;;;17.15;76.28
72444;BME280;60449;52.016;5.414;2023-08-17T05:00:27;101950.41;;;17.21;75.59
72444;BME280;60449;52.016;5.414;2023-08-17T05:01:17;101951.31;;;17.02;76.71
72444;BME280;60449;52.016;5.414;2023-08-17T05:02:07;101956.63;;;17.02;76.46
72444;BME280;60449;52.016;5.414;2023-08-17T05:03:08;101961.94;;;17.23;76.07